Latest Weather Observations for Lockhart River

IDQ60801

Issued at 4:32 pm EST Saturday 4 July 2015 (issued every 30 minutes, with the page automatically refreshed every 10 minutes)

About weather observations | Map of weather stations | Latest weather observations for QLD | Other Formats
Station Details ID: 028008 Name: LOCKHART RIVER AIRPORT Lat: -12.79 Lon: 143.30 Height: 18.5 m
Data from the previous 72 hours. | See also: Recent months at Lockhart River
Date/Time
EST
Temp
°C
App
Temp
°C
Dew
Point
Rel
Hum
%
Delta-T
°C
Wind Press
QNH
hPa
Press
MSL
hPa
Rain
since 9 am
mm
Dir
 
Spd
km/h
Gust
km/h
Spd
kts
Gust
kts
04/04:30pm 24.3 23.5 18.5 70 3.7 ESE 20 30 11 16 1013.2 - 0.0
04/04:00pm 24.8 24.0 18.5 68 4.0 ESE 20 28 11 15 1013.1 - 0.0
04/03:30pm 25.4 23.9 18.6 66 4.3 SE 24 32 13 17 1013.1 - 0.0
04/03:00pm 25.9 24.6 19.1 66 4.4 SSE 24 35 13 19 1013.2 1013.1 0.0
04/02:30pm 25.5 23.9 18.4 65 4.5 ESE 24 33 13 18 1013.4 - 0.0
04/02:00pm 25.7 24.0 18.1 63 4.8 ESE 24 33 13 18 1013.7 - 0.0
04/01:30pm 25.2 23.9 18.2 65 4.4 SE 22 32 12 17 1014.1 - 0.0
04/01:00pm 25.2 22.6 17.7 63 4.7 SE 28 35 15 19 1014.4 - 0.0
04/12:30pm 24.5 24.9 19.8 75 3.0 SSE 17 24 9 13 1014.9 - 0.0
04/12:00pm 25.2 24.5 18.6 67 4.2 ESE 20 32 11 17 1015.3 1015.2 0.0
04/11:30am 24.9 24.0 18.3 66 4.2 ESE 20 32 11 17 1015.7 - 0.0
04/11:00am 25.4 23.8 19.3 69 3.9 SE 26 35 14 19 1015.8 - 0.0
04/10:30am 24.7 22.7 18.4 68 4.0 ESE 26 35 14 19 1015.8 - 0.0
04/10:00am 24.0 22.9 19.5 76 2.9 SE 24 35 13 19 1015.8 - 0.0
04/09:30am 24.0 22.5 19.5 76 2.9 SE 26 35 14 19 1015.9 - 0.0
04/09:00am 23.6 23.9 20.3 82 2.1 SE 19 26 10 14 1015.8 1015.7 0.6
04/08:30am 23.1 23.9 20.6 86 1.6 SE 17 24 9 13 1015.5 - 0.6
04/08:00am 21.0 23.9 19.8 93 0.8 SSE 4 9 2 5 1015.1 - 0.6
04/07:30am 20.7 24.5 20.2 97 0.3 CALM 0 0 0 0 1014.9 - 0.6
04/07:00am 20.4 24.1 19.9 97 0.3 CALM 0 0 0 0 1014.9 - 0.6
04/06:30am 20.3 23.9 19.8 97 0.3 CALM 0 0 0 0 1014.6 - 0.6
04/06:00am 20.4 24.1 19.9 97 0.3 CALM 0 0 0 0 1014.3 1014.2 0.6
04/05:30am 20.2 23.7 19.5 96 0.4 CALM 0 0 0 0 1014.1 - 0.6
04/05:00am 20.2 23.7 19.5 96 0.4 CALM 0 0 0 0 1014.1 - 0.6
04/04:30am 20.1 23.5 19.4 96 0.4 CALM 0 0 0 0 1014.0 - 0.6
04/04:00am 19.8 23.2 19.3 97 0.3 CALM 0 0 0 0 1014.0 - 0.6
04/03:30am 19.5 22.8 19.2 98 0.2 CALM 0 0 0 0 1014.0 - 0.6
04/03:00am 19.2 22.4 18.9 98 0.2 CALM 0 0 0 0 1014.3 1014.2 0.6
04/02:30am 19.2 22.4 18.9 98 0.2 CALM 0 0 0 0 1014.6 - 0.6
04/02:00am 19.0 22.1 18.7 98 0.2 CALM 0 0 0 0 1014.8 - 0.6
04/01:30am 18.5 21.4 18.2 98 0.2 CALM 0 0 0 0 1014.9 - 0.6
04/01:00am 18.3 21.1 18.0 98 0.2 CALM 0 0 0 0 1015.2 - 0.6
04/12:30am 17.9 20.5 17.6 98 0.2 CALM 0 0 0 0 1015.4 - 0.6
04/12:00am 17.7 20.2 17.2 97 0.3 CALM 0 0 0 0 1015.6 1015.5 0.6
 
Date/Time
EST
Temp
°C
App
Temp
°C
Dew
Point
Rel
Hum
%
Delta-T
°C
Wind Press
QNH
hPa
Press
MSL
hPa
Rain
since 9 am
mm
Dir
 
Spd
km/h
Gust
km/h
Spd
kts
Gust
kts
03/11:30pm 17.9 20.5 17.4 97 0.3 CALM 0 0 0 0 1015.9 - 0.6
03/11:00pm 17.9 20.5 17.4 97 0.3 CALM 0 0 0 0 1015.9 - 0.6
03/10:30pm 17.9 20.5 17.4 97 0.3 CALM 0 0 0 0 1016.0 - 0.6
03/10:00pm 18.2 20.8 17.6 96 0.4 CALM 0 0 0 0 1015.9 - 0.6
03/09:30pm 18.6 21.4 17.9 96 0.4 CALM 0 0 0 0 1016.0 - 0.6
03/09:00pm 18.6 20.9 17.8 95 0.5 ESE 2 13 1 7 1015.8 1015.7 0.6
03/08:30pm 18.9 21.6 17.7 93 0.7 CALM 0 0 0 0 1015.5 - 0.6
03/08:00pm 19.4 22.2 17.9 91 0.9 CALM 0 0 0 0 1015.3 - 0.6
03/07:30pm 20.1 22.8 17.7 86 1.5 CALM 0 0 0 0 1015.0 - 0.6
03/07:00pm 21.6 22.4 17.2 76 2.7 SE 9 11 5 6 1014.6 - 0.6
03/06:30pm 22.5 22.5 17.2 72 3.3 SE 13 17 7 9 1014.4 - 0.6
03/06:00pm 23.7 22.9 17.2 67 4.0 SE 17 24 9 13 1014.3 1014.2 0.6
03/05:30pm 24.5 23.2 16.7 61 4.8 SE 19 28 10 15 1014.1 - 0.6
03/05:00pm 24.1 22.9 17.1 65 4.3 SE 19 24 10 13 1013.7 - 0.6
03/04:30pm 25.1 24.2 17.8 64 4.6 SE 19 26 10 14 1013.3 - 0.6
03/04:00pm 26.1 25.3 18.5 63 4.8 ESE 20 30 11 16 1013.1 - 0.6
03/03:30pm 26.2 25.7 19.1 65 4.6 ESE 20 32 11 17 1013.0 - 0.6
03/03:00pm 26.1 25.2 18.2 61 5.0 ESE 20 35 11 19 1013.0 1013.0 0.6
03/02:30pm 26.9 25.6 18.2 59 5.5 ESE 22 28 12 15 1013.3 - 0.6
03/02:00pm 26.6 25.0 16.5 54 6.2 ESE 20 30 11 16 1013.6 - 0.6
03/01:30pm 26.6 25.0 15.9 51 6.6 SE 19 30 10 16 1013.9 - 0.6
03/01:00pm 26.3 24.7 16.5 54 6.1 ESE 20 32 11 17 1014.4 - 0.6
03/12:30pm 26.3 24.9 17.1 57 5.7 ESE 20 32 11 17 1015.0 - 0.6
03/12:00pm 26.5 24.8 17.3 57 5.8 ESE 22 30 12 16 1015.6 1015.5 0.6
03/11:30am 25.6 23.4 17.0 59 5.3 SE 24 33 13 18 1016.2 - 0.6
03/11:00am 25.4 23.9 17.6 62 4.9 ESE 22 32 12 17 1016.4 - 0.6
03/10:30am 25.2 23.8 17.9 64 4.6 ESE 22 32 12 17 1016.8 - 0.6
03/10:00am 24.2 24.0 18.4 70 3.7 ESE 17 32 9 17 1016.9 - 0.6
03/09:30am 21.9 24.4 20.2 90 1.1 S 7 9 4 5 1016.8 - 0.6
03/09:00am 21.2 23.6 20.0 93 0.8 SSE 7 9 4 5 1016.6 1016.5 0.4
03/08:30am 20.7 24.6 20.4 98 0.2 CALM 0 0 0 0 1016.4 - 0.4
03/08:00am 20.2 24.0 20.2 100 0.0 CALM 0 0 0 0 1016.1 - 0.4
03/07:30am 19.4 22.8 19.4 100 0.0 CALM 0 0 0 0 1015.8 - 0.4
03/07:00am 18.5 21.4 18.3 99 0.1 CALM 0 0 0 0 1015.5 - 0.4
03/06:30am 18.3 21.2 18.1 99 0.1 CALM 0 0 0 0 1015.4 - 0.4
03/06:00am 17.9 20.6 17.7 99 0.1 CALM 0 0 0 0 1015.3 1015.2 0.4
03/05:30am 17.5 20.0 17.3 99 0.1 CALM 0 0 0 0 1015.2 - 0.4
03/05:00am 17.3 19.7 17.0 98 0.2 CALM 0 0 0 0 1015.2 - 0.4
03/04:30am 17.3 19.7 17.0 98 0.2 CALM 0 0 0 0 1015.3 - 0.4
03/04:00am 17.6 20.1 17.3 98 0.2 CALM 0 0 0 0 1015.3 - 0.4
03/03:30am 17.7 20.3 17.4 98 0.2 CALM 0 0 0 0 1015.3 - 0.4
03/03:00am 17.8 20.4 17.5 98 0.2 CALM 0 0 0 0 1015.5 1015.4 0.4
03/02:30am 18.2 20.9 17.7 97 0.3 CALM 0 0 0 0 1015.7 - 0.4
03/02:00am 18.6 21.5 18.1 97 0.3 CALM 0 0 0 0 1016.0 - 0.4
03/01:30am 18.7 21.6 18.2 97 0.3 CALM 0 0 0 0 1016.3 - 0.4
03/01:00am 19.2 22.3 18.7 97 0.3 CALM 0 0 0 0 1016.5 - 0.4
03/12:30am 19.5 22.7 18.8 96 0.4 CALM 0 0 0 0 1016.7 - 0.4
03/12:00am 19.8 23.1 19.0 95 0.5 CALM 0 0 0 0 1016.9 1016.8 0.4
 
Date/Time
EST
Temp
°C
App
Temp
°C
Dew
Point
Rel
Hum
%
Delta-T
°C
Wind Press
QNH
hPa
Press
MSL
hPa
Rain
since 9 am
mm
Dir
 
Spd
km/h
Gust
km/h
Spd
kts
Gust
kts
02/11:30pm 20.2 23.5 19.0 93 0.8 CALM 0 0 0 0 1017.2 - 0.4
02/11:00pm 20.7 24.1 19.4 92 0.8 CALM 0 0 0 0 1017.4 - 0.4
02/10:30pm 21.4 24.7 19.1 87 1.5 CALM 0 0 0 0 1017.5 - 0.4
02/10:00pm 22.2 23.9 19.4 84 1.8 SSE 9 11 5 6 1017.6 - 0.4
02/09:30pm 22.5 23.7 19.1 81 2.2 SE 11 17 6 9 1017.5 - 0.4
02/09:00pm 23.2 24.0 19.1 78 2.6 ESE 13 17 7 9 1017.5 1017.4 0.4
02/08:30pm 23.1 24.1 19.5 80 2.3 ESE 13 19 7 10 1017.2 - 0.4
02/08:00pm 23.1 24.0 19.3 79 2.4 SE 13 19 7 10 1017.0 - 0.4
02/07:30pm 23.0 24.1 19.6 81 2.2 SE 13 19 7 10 1016.6 - 0.4
02/07:00pm 23.3 24.0 19.7 80 2.3 SE 15 20 8 11 1016.2 - 0.4
02/06:30pm 23.7 23.6 19.6 78 2.6 SE 19 30 10 16 1015.8 - 0.4
02/06:00pm 23.9 23.7 19.4 76 2.9 SE 19 24 10 13 1015.5 1015.4 0.4
02/05:30pm 24.6 24.5 19.9 75 3.0 ESE 20 30 11 16 1015.3 - 0.4
02/05:00pm 25.1 23.6 19.5 71 3.6 ESE 26 35 14 19 1015.2 - 0.4
02/04:30pm 25.4 24.7 20.2 73 3.4 ESE 24 41 13 22 1015.0 - 0.4
02/04:00pm 26.0 24.7 19.9 69 4.0 ESE 26 37 14 20 1015.1 - 0.4
02/03:30pm 25.0 23.1 19.4 71 3.6 ESE 28 37 15 20 1015.3 - 0.4
02/03:00pm 26.4 25.6 20.9 72 3.6 ESE 26 39 14 21 1015.3 1015.2 0.2
02/02:30pm 25.9 25.0 20.7 73 3.4 ESE 26 37 14 20 1015.5 - 0.2
02/02:00pm 25.5 24.7 20.1 72 3.5 SE 24 39 13 21 1015.7 - 0.2
02/01:30pm 24.7 25.7 22.2 86 1.7 ESE 20 32 11 17 1016.0 - 0.2
02/01:00pm 26.3 25.8 20.8 71 3.6 SE 24 33 13 18 1016.3 - 0.0
02/12:33pm 26.4 25.0 20.5 70 3.9 ESE 28 46 15 25 1016.7 - 0.0
02/12:30pm 26.4 26.2 21.2 73 3.4 ESE 24 37 13 20 1016.7 - 0.0
02/12:00pm 25.7 24.6 21.8 79 2.6 SE 30 43 16 23 1017.2 1017.2 0.0
02/11:30am 26.1 24.9 21.5 76 3.1 ESE 30 41 16 22 1017.5 - 0.0
02/11:00am 26.1 26.2 21.1 74 3.3 ESE 22 32 12 17 1017.7 - 0.0
02/10:30am 25.9 24.9 21.3 76 3.0 ESE 28 46 15 25 1018.1 - 0.0
02/10:00am 24.9 23.5 19.7 73 3.4 ESE 26 35 14 19 1018.2 - 0.0
02/09:30am 24.7 24.4 20.4 77 2.8 ESE 22 32 12 17 1018.4 - 0.0
02/09:00am 24.4 24.7 20.7 80 2.4 ESE 20 32 11 17 1018.5 1018.4 1.8
02/08:30am 24.1 23.8 20.4 80 2.4 SE 22 33 12 18 1018.2 - 1.8
02/08:00am 23.3 24.0 20.4 84 1.9 SE 17 24 9 13 1017.9 - 1.8
02/07:30am 22.8 23.8 20.3 86 1.6 SE 15 28 8 15 1017.6 - 1.8
02/07:00am 22.5 23.7 19.9 85 1.7 SE 13 19 7 10 1017.3 - 1.8
02/06:30am 22.6 23.4 19.9 85 1.7 SE 15 20 8 11 1017.0 - 1.8
02/06:00am 22.6 22.6 19.8 84 1.8 SE 19 24 10 13 1016.8 1016.7 1.8
02/05:30am 22.5 22.5 19.7 84 1.8 SE 19 24 10 13 1016.5 - 1.8
02/05:00am 22.3 22.7 19.8 86 1.6 SE 17 20 9 11 1016.3 - 1.8
02/04:30am 22.2 22.5 19.7 86 1.6 SE 17 20 9 11 1016.1 - 1.8
02/04:00am 22.1 22.1 19.8 87 1.5 SE 19 24 10 13 1016.0 - 1.8
02/03:30am 21.9 22.0 20.0 89 1.2 SE 19 24 10 13 1016.1 - 1.8
02/03:00am 22.1 22.2 20.0 88 1.3 SE 19 24 10 13 1016.2 1016.1 1.8
02/02:30am 22.5 22.6 20.0 86 1.6 SE 19 24 10 13 1016.5 - 1.8
02/02:00am 22.5 22.5 20.2 87 1.5 SE 20 26 11 14 1016.9 - 1.8
02/01:30am 22.7 23.0 20.4 87 1.5 SE 19 28 10 15 1017.2 - 1.8
02/01:00am 22.8 23.1 20.3 86 1.6 SE 19 26 10 14 1017.4 - 1.8
02/12:30am 23.0 23.3 20.5 86 1.6 SE 19 28 10 15 1017.7 - 1.8
02/12:00am 22.9 23.5 20.2 85 1.7 SE 17 30 9 16 1017.9 1017.8 1.8
 
Date/Time
EST
Temp
°C
App
Temp
°C
Dew
Point
Rel
Hum
%
Delta-T
°C
Wind Press
QNH
hPa
Press
MSL
hPa
Rain
since 9 am
mm
Dir
 
Spd
km/h
Gust
km/h
Spd
kts
Gust
kts
01/11:30pm 23.2 22.5 20.2 83 1.9 ESE 24 33 13 18 1018.2 - 1.8
01/11:00pm 23.3 22.9 20.2 83 2.0 ESE 22 35 12 19 1018.4 - 1.8
01/10:30pm 23.2 23.2 20.2 83 1.9 ESE 20 33 11 18 1018.5 - 1.8
01/10:00pm 23.6 23.2 20.9 85 1.8 ESE 24 33 13 18 1018.4 - 1.8
01/09:30pm 23.2 23.5 20.7 86 1.6 ESE 20 28 11 15 1018.3 - 1.8
01/09:00pm 23.5 22.7 20.8 85 1.8 ESE 26 39 14 21 1018.0 1017.9 1.8
01/08:30pm 22.8 24.5 20.9 89 1.2 ESE 13 24 7 13 1017.8 - 1.8
01/08:00pm 22.5 25.3 21.5 94 0.7 SSE 9 13 5 7 1017.6 - 1.8
01/07:30pm 22.3 25.4 21.5 95 0.5 SSE 7 13 4 7 1017.4 - 1.8
01/07:13pm 22.3 25.1 21.5 95 0.5 SSE 9 15 5 8 1017.1 - 1.8
01/07:03pm 22.2 24.9 21.4 95 0.5 ESE 9 15 5 8 1017.1 - 1.8
01/07:00pm 22.2 24.5 21.4 95 0.5 SE 11 15 6 8 1017.0 - 1.6
01/06:30pm 22.3 25.0 21.3 94 0.7 SSE 9 11 5 6 1016.6 - 1.4
01/06:00pm 22.4 24.6 21.2 93 0.8 SSE 11 17 6 9 1016.5 1016.4 1.4
01/05:51pm 22.4 24.5 21.0 92 0.9 SSE 11 15 6 8 1016.4 - 1.4
01/05:30pm 22.5 23.6 21.3 93 0.8 SSE 17 22 9 12 1016.3 - 1.4
01/05:00pm 22.5 23.7 21.5 94 0.7 SSE 17 22 9 12 1016.1 - 1.4

Other Formats:

Comma delimited format used in spreadsheet applications
http://www.bom.gov.au/fwo/IDQ60801/IDQ60801.94186.axf

JavaScript Object Notation format (JSON) in row-major order
http://www.bom.gov.au/fwo/IDQ60801/IDQ60801.94186.json